Alledonia, Ohio
Current Conditions -  °F | °C
As of 2:53 PM on Sunday 23 Nov 2014 (Local Time) from KHLG Reporting Station
Scattered Clouds Scattered Clouds  
Wind Chill: 17°   Ceiling: Unl
Heat Index: 17°   Visibility: 10mi
Dew Point:   Wind: 14mph
Humidity: 50%   Direction: 110°ESE
Pressure: 29.86"   Gusts: NA
Location:  39.9°N, 80.97°W
Report Text: KHLG 231953Z 11012KT 10SM SCT041 17/07 A2986 RMK AO2 SLP115 T01720067
Loading
Personal Weather Stations






























Interactive Weather Map New forecast layout! Learn more

10-Day Weather Forecast

Advertisements
Track Severe Weather on mobile